Portada
METAR-TAF:

METAR-TAF

Aeroports :

Luganville, Illa Espíritu Santo, Vanuatu

latitud: 15-31S, longitud: 167-13E, altitud: 41 m

Observació

L'informe es va fer fa 24 minuts, a les 06:00 UTC
Vent 4 kt del Nord-Est
Temperatura 28°C
Humitat 74%
Pressió 1010 hPa
Visibilitat 10 km o més
Núvols disperses a una alçada de 2000 ft
Cel ennuvolat a una alçada de 13000 ft

METAR: NVSS 220600Z 04004KT 9999 SCT020 BKN130 28/23 Q1010

Hora: 17:24 (06:24 UTC)

Pronòstic

L'informe es va fer fa 8 hores i 4 minuts, a les 22:20 UTC
Pronòstic vàlid del 22 a les 00 UTC al 22 a les 24 UTC
Vent 6 kt del Est/Sud-Est
Visibilitat 10 km o més
Escasses núvols a una alçada de 2500 ft

TAF: NVSS 212220Z 2200/2224 12006KT 9999 FEW025

Observacions i pronòstics meteorològics de més de 4000 aeroports (METAR i TAF).

Les estacions disponibles són els punts grocs i vermells al mapa.

Posi el ratolí al punt desitjat per veure el nom de l'estació.

Feu clic per veure les observacions i els pronòstics meteorològics.

Per canviar el mapa: feu clic els botons verds amb una creu de color negre per apropar; al botó verd amb un guió per allunyar la imatge; o en les fletxes verdes per a mapes adjacents.


METAR-TAF: